Terminal Aerodrome Forecast
Issued by NWS

Home | Current Version | Previous Version | Text Only | Print | Product List | Glossary On
Versions: 1 2 3 4 5 6 7 8 9 10 11 12 13 14 15 16 17 18 19 20
000
FTUS43 KAPX 011800 AAA
TAFPLN
TAF AMD
KPLN 011844Z 0119/0218 22009G18KT 6SM SHRA BR BKN025
      TEMPO 0119/0120 25012G25KT 2SM TSRA OVC025CB
     FM012000 24007KT P6SM VCSH BKN025
     FM020100 25006KT P6SM BKN050
     FM021400 28007KT P6SM SCT120=

USA.gov is the U.S. government's official web portal to all federal, state and local government web resources and services.